Terminal Aerodrome Forecast
Issued by NWS Greer, SC

Home | Current Version | Previous Version | Text Only | Print | Product List | Glossary On
Versions: 1 2 3 4 5 6 7 8 9 10 11 12 13 14 15 16 17 18 19 20 21 22 23 24 25 26 27 28 29 30 31 32 33 34 35 36 37 38 39 40 41 42 43 44 45 46 47 48 49 50
000
FTUS42 KGSP 222336
TAFCLT
TAF
KCLT 222336Z 2300/2324 20006KT P6SM VCSH SCT040 BKN120
      TEMPO 2300/2303 VRB12KT 6SM -SHRA BR OVC040
     FM230300 13003KT 6SM BR VCSH OVC045
     FM230600 14003KT 5SM -SHRA BR OVC015
     FM230800 15004KT 5SM -SHRA BR OVC007
     FM231700 22007KT 5SM -SHRA BR OVC007 PROB30 2317/2318 2SM TSRA
      BR OVC003CB=

USA.gov is the U.S. government's official web portal to all federal, state and local government web resources and services.